Station: Townsville  

  Atmospheric Gas Attenuation - ITU Rec 676-11   ----------------- dB/100km -----------------
Date Time Temp RH % AH g/m3 Dew Point Wind Direction Speed kph Gust kph Barometer mB Rainfall Since 9am 24GHz 47GHz 76GHz 122GHz 134GHz 241GHz
08/05 12:30 28.9 46 13.14 16.1 20 26 1015.9 0 28.3 28.6 49.2 129.8 134.4 466.3
08/05 12:20 29.7 45 13.43 16.8 24 28 1016.1 0 28.8 28.8 49.8 131.5 136.7 474.3
08/05 12:10 28.6 50 14.05 17.2 17 19 1016.2 0 30.2 30.1 53.0 139.7 146.5 508.5
08/05 12:00 28.1 52 14.22 17.3 13 17 1016.4 0 30.6 30.5 54.0 142.4 149.7 519.5
08/05 11:50 27.8 50 13.45 16.7 20 26 1016.5 0 29.0 29.4 51.1 134.9 140.3 486.8
08/05 11:40 28.3 50 13.82 16.9 17 20 1016.6 0 29.7 29.8 52.3 137.9 144.2 500.3
08/05 11:30 28 51 13.87 16.9 17 19 1016.8 0 29.9 30.0 52.7 139.0 145.4 504.5
08/05 11:20 27.8 51 13.72 17 19 20 1016.9 0 29.6 29.9 52.2 137.7 143.8 499.0
08/05 11:10 28.5 50 13.98 17.1 17 20 1017 0 30.1 30.0 52.8 139.3 145.9 506.3
08/05 11:00 28.7 49 13.85 17.2 19 24 1017.1 0 29.8 29.8 52.1 137.6 143.9 499.3
08/05 10:50 28 50 13.6 16.6 17 22 1017.3 0 29.3 29.6 51.6 136.2 142.0 492.5
08/05 10:40 28 51 13.87 16.9 19 20 1017.3 0 29.9 30.0 52.7 139.0 145.4 504.7
08/05 10:30 27.7 50 13.38 16.6 15 19 1017.5 0 28.9 29.4 51.0 134.4 139.7 484.6
08/05 10:20 27.7 50 13.38 16.6 22 26 1017.5 0 28.9 29.4 51.0 134.4 139.7 484.6
08/05 10:10 27.9 51 13.79 17.1 28 33 1017.4 0 29.7 30.0 52.5 138.4 144.6 501.7
08/05 10:00 27 53 13.64 16.6 20 24 1017.5 0 29.5 30.0 52.5 138.4 144.3 500.7
08/05 09:50 26.8 52 13.24 16.1 17 22 1017.5 0 28.6 29.5 51.0 134.5 139.5 483.9
08/05 09:40 26.5 52 13.02 16.1 17 20 1017.5 0 28.2 29.2 50.3 132.7 137.2 475.8
08/05 09:30 26.9 54 13.82 16.8 19 20 1017.5 0 29.8 30.3 53.2 140.5 146.9 509.5
08/05 09:20 26.3 53 13.12 16 17 20 1017.5 0 28.4 29.4 50.9 134.1 138.9 481.5
08/05 09:10 26.1 52 12.73 15.5 17 19 1017.4 0 27.6 28.9 49.5 130.3 134.2 465.1
08/05 09:00 26.2 56 13.79 16.7 19 26 1017.2 0 29.8 30.5 53.6 141.3 147.8 512.6
08/05 08:50 25.4 54 12.71 15.4 15 19 1017.1 0 27.6 29.1 49.8 131.2 135.1 468.3
08/05 08:40 25.7 52 12.45 15.1 13 15 1017.1 0 27.1 28.5 48.6 128.0 131.2 454.8
08/05 08:30 25.3 55 12.88 15.6 15 15 1017.1 0 28.0 29.4 50.5 133.2 137.5 476.6
08/05 08:20 24.9 57 13.05 15.8 13 15 1017 0 28.4 29.8 51.5 135.7 140.4 486.7
08/05 08:10 24.9 57 13.05 15.8 13 17 1017.1 0 28.4 29.8 51.5 135.7 140.4 486.8
08/05 08:00 24 57 12.4 15 15 17 1016.9 0 27.1 29.0 49.4 130.3 133.5 462.4
08/05 07:50 23.8 59 12.69 15.3 15 17 1016.7 0 27.7 29.5 50.7 133.7 137.6 476.8
08/05 07:40 23.5 62 13.11 15.8 11 11 1016.6 0 28.6 30.3 52.6 138.7 143.7 498.2
08/05 07:30 23.1 68 14.06 16.9 11 13 1016.6 0 30.6 32.1 56.9 150.0 157.5 546.1
08/05 07:20 22.8 74 15.04 17.9 11 13 1016.4 0 32.7 33.9 61.3 161.8 172.0 596.5
08/05 07:10 22.3 81 15.99 18.9 7 9 1016.3 0 34.8 35.8 66.0 174.2 187.0 648.9
08/05 07:00 21.8 83 15.92 18.8 7 9 1016.2 0 34.7 35.9 66.1 174.5 187.2 649.5
08/05 06:50 21.7 84 16.02 18.9 6 7 1016 0 34.9 36.1 66.6 175.9 188.9 655.5
08/05 06:40 21.1 89 16.4 19.2 4 6 1016 0 35.8 37.0 68.9 182.0 196.2 680.8
08/05 06:30 20.3 90 15.83 18.6 4 7 1015.8 0 34.6 36.3 66.9 176.8 189.5 657.5
08/05 06:20 20.1 91 15.82 18.6 0 0 1015.7 0 34.6 36.4 67.1 177.1 189.9 658.6
08/05 06:10 20.2 92 16.08 18.9 0 0 1015.7 0 35.2 36.8 68.2 180.1 193.6 671.6
08/05 06:00 19.9 92 15.81 18.6 0 0 1015.5 0 34.6 36.4 67.2 177.4 190.2 659.8
08/05 05:50 20 93 16.07 18.8 4 6 1015.4 0 35.2 36.9 68.3 180.4 193.9 672.7
08/05 05:40 19.9 92 15.81 18.6 7 7 1015.1 0 34.6 36.4 67.1 177.4 190.2 659.6
08/05 05:30 20 91 15.73 18.5 9 11 1015 0 34.4 36.2 66.7 176.1 188.7 654.4
08/05 05:20 20.3 89 15.65 18.4 9 11 1015 0 34.2 35.9 66.0 174.5 186.7 647.6
08/05 05:10 21.4 89 16.68 19.5 7 7 1014.8 0 36.4 37.4 69.8 184.6 199.5 692.4
08/05 05:00 21.1 88 16.21 19 9 11 1014.7 0 35.4 36.6 67.9 179.5 193.1 670.1
08/05 04:50 21.3 88 16.4 19.2 7 9 1014.8 0 35.8 36.9 68.6 181.4 195.5 678.4
08/05 04:40 21.2 88 16.31 19.1 11 11 1014.8 0 35.6 36.8 68.3 180.5 194.4 674.5
08/05 04:30 21.5 87 16.4 19.2 11 13 1014.8 0 35.7 36.8 68.5 180.9 195.0 676.6
08/05 04:20 21.9 84 16.21 19.1 11 13 1014.8 0 35.3 36.3 67.2 177.6 191.1 663.1
08/05 04:10 22 85 16.5 19.4 11 11 1014.7 0 35.9 36.8 68.5 180.9 195.2 677.4
08/05 04:00 22 86 16.69 19.5 11 13 1014.7 0 36.3 37.1 69.3 183.2 198.1 687.4
08/05 03:50 21.9 88 16.98 19.8 11 11 1014.8 0 37.0 37.7 70.8 187.1 202.8 703.8
08/05 03:40 22 89 17.27 20.1 9 9 1014.7 0 37.6 38.2 72.1 190.5 207.0 718.3
08/05 03:30 21.5 91 17.16 20 2 11 1014.7 0 37.4 38.2 72.0 190.4 206.6 717.1
08/05 03:20 21 92 16.85 19.6 0 0 1014.7 0 36.8 37.9 71.0 187.7 203.2 705.1
08/05 03:10 20.9 92 16.75 19.6 0 0 1014.7 0 36.6 37.7 70.6 186.7 201.9 700.7
08/05 03:00 20.8 92 16.66 19.5 0 0 1014.6 0 36.4 37.6 70.3 185.8 200.8 696.7
08/05 02:50 20.9 91 16.57 19.4 0 0 1014.7 0 36.2 37.4 69.8 184.4 199.2 691.0
08/05 02:40 21 93 17.03 19.8 0 0 1014.7 0 37.1 38.2 71.9 190.0 206.0 714.9
08/05 02:30 20.4 91 16.1 18.9 0 0 1014.7 0 35.2 36.7 68.0 179.8 193.3 670.4
08/05 02:20 21.2 92 17.05 19.8 0 0 1014.7 0 37.2 38.2 71.8 189.7 205.8 714.1
08/05 02:10 21 91 16.67 19.5 0 0 1014.8 0 36.4 37.5 70.2 185.4 200.4 695.5
08/05 02:00 21 90 16.49 19.3 0 0 1014.8 0 36.0 37.2 69.3 183.2 197.7 685.9
08/05 01:50 21.4 90 16.87 19.7 0 0 1014.9 0 36.8 37.7 70.7 187.0 202.5 702.6
08/05 01:40 21.5 89 16.78 19.6 0 0 1014.9 0 36.6 37.5 70.2 185.6 200.8 696.8
08/05 01:30 21.5 89 16.78 19.6 0 2 1014.9 0 36.6 37.5 70.2 185.6 200.8 696.8
08/05 01:20 21.3 88 16.4 19.2 2 4 1015 0 35.8 36.9 68.6 181.4 195.5 678.5
08/05 01:10 21.9 86 16.59 19.5 7 7 1015 0 36.1 37.0 69.0 182.3 196.9 683.2
08/05 01:00 23 82 16.85 19.8 7 9 1015 0 36.6 37.0 69.2 182.9 197.9 686.9
08/05 00:50 23 83 17.06 20 7 7 1015 0 37.0 37.4 70.2 185.4 201.1 697.9
08/05 00:40 22.8 85 17.27 20.1 7 9 1015.1 0 37.5 37.9 71.3 188.5 204.8 711.0
08/05 00:30 22.5 84 16.78 19.7 7 9 1015.1 0 36.5 37.1 69.3 183.2 198.2 687.8
08/05 00:20 22.7 85 17.17 20 9 9 1015.2 0 37.3 37.7 71.0 187.6 203.6 706.6
08/05 00:10 22.4 85 16.88 19.8 9 9 1015.2 0 36.7 37.3 69.9 184.7 200.0 694.0
08/05 00:00 22 87 16.88 19.7 7 9 1015.2 0 36.7 37.5 70.3 185.7 201.0 697.7
07/05 23:50 22.2 85 16.69 19.6 7 7 1015.3 0 36.3 37.1 69.2 182.9 197.6 685.9
07/05 23:40 22.8 86 17.47 20.3 7 7 1015.5 0 37.9 38.3 72.3 191.1 207.9 721.8
07/05 23:30 23 85 17.47 20.3 7 9 1015.5 0 37.9 38.2 72.1 190.6 207.4 719.9
07/05 23:20 23 84 17.26 20.1 7 9 1015.7 0 37.4 37.8 71.1 188.0 204.2 708.8
07/05 23:10 23.1 85 17.57 20.4 7 7 1015.7 0 38.1 38.3 72.5 191.6 208.7 724.4
07/05 23:00 23.3 84 17.56 20.4 7 9 1015.8 0 38.1 38.2 72.3 191.0 208.0 722.0
07/05 22:50 23.5 84 17.76 20.6 9 9 1015.8 0 38.5 38.5 73.0 193.0 210.5 730.7
07/05 22:40 23.7 84 17.97 20.8 9 9 1015.8 0 38.9 38.8 73.8 195.1 213.1 740.0
07/05 22:30 23.6 84 17.86 20.7 7 9 1015.9 0 38.7 38.7 73.4 194.0 211.7 735.1
07/05 22:20 23.6 85 18.08 20.9 7 9 1016 0 39.1 39.1 74.4 196.8 215.1 746.9
07/05 22:10 23.7 84 17.97 20.8 7 9 1015.9 0 38.9 38.8 73.8 195.1 213.1 740.0
07/05 22:00 23.8 85 18.28 21.1 7 11 1016 0 39.5 39.4 75.2 198.8 217.6 755.7
07/05 21:50 23.6 83 17.65 20.5 6 7 1016 0 38.2 38.3 72.4 191.4 208.5 724.0
07/05 21:40 23.7 83 17.75 20.6 6 7 1016 0 38.4 38.4 72.8 192.4 209.8 728.3
07/05 21:30 23.9 83 17.96 20.8 7 7 1016 0 38.8 38.7 73.6 194.5 212.4 737.6
07/05 21:20 23.7 82 17.54 20.4 6 7 1016 0 38.0 38.0 71.8 189.8 206.6 717.2
07/05 21:10 23.7 82 17.54 20.4 7 9 1015.9 0 38.0 38.0 71.8 189.8 206.6 717.2
07/05 21:00 24 81 17.62 20.5 9 11 1015.9 0 38.1 38.0 71.9 190.0 206.9 718.6
07/05 20:50 23.9 82 17.74 20.6 9 9 1015.8 0 38.4 38.3 72.5 191.7 209.0 725.8
07/05 20:40 24.1 81 17.72 20.6 9 11 1015.8 0 38.3 38.2 72.2 191.0 208.2 722.8
07/05 20:30 24.1 81 17.72 20.6 7 9 1015.7 0 38.3 38.2 72.2 191.0 208.2 722.8
07/05 20:20 24 81 17.62 20.5 9 9 1015.6 0 38.1 38.0 71.9 190.0 206.9 718.4
07/05 20:10 24.2 80 17.6 20.5 7 9 1015.6 0 38.0 37.9 71.6 189.2 206.0 715.5
07/05 20:00 24.2 81 17.82 20.7 7 9 1015.4 0 38.5 38.3 72.6 191.9 209.3 727.0

Last Refresh: 08-May-2026 12:08:50

Bureau of Meteorology